createdAt,value
2022-08-30T00:02:21.039Z,74.46
2022-08-30T00:04:48.399Z,74.61
2022-08-30T00:07:15.714Z,74.79
2022-08-30T00:09:42.613Z,74.88
2022-08-30T00:12:09.917Z,75.20
2022-08-30T00:14:37.257Z,75.13
2022-08-30T00:17:04.365Z,75.23
2022-08-30T00:19:31.479Z,74.91
2022-08-30T00:21:58.265Z,74.63
2022-08-30T00:24:25.109Z,74.82
2022-08-30T00:26:51.910Z,75.10
2022-08-30T00:29:18.711Z,75.60
2022-08-30T00:31:45.444Z,75.23
2022-08-30T00:34:12.249Z,75.21
2022-08-30T00:36:39.000Z,75.11
2022-08-30T00:39:06.461Z,75.35
2022-08-30T00:41:33.661Z,75.19
2022-08-30T00:44:01.314Z,75.29
2022-08-30T00:46:28.295Z,75.73
2022-08-30T00:48:56.602Z,75.68
2022-08-30T00:51:24.216Z,75.18
2022-08-30T00:53:54.966Z,75.37
2022-08-30T00:56:24.618Z,75.44
2022-08-30T00:58:55.877Z,75.86
2022-08-30T01:01:23.286Z,75.57
2022-08-30T01:03:50.556Z,75.92
2022-08-30T01:06:18.068Z,75.85
2022-08-30T01:08:46.868Z,76.26
2022-08-30T01:11:16.944Z,76.29
2022-08-30T01:13:47.153Z,76.51
2022-08-30T01:16:14.342Z,76.43
2022-08-30T01:18:41.597Z,76.19
2022-08-30T01:21:24.505Z,76.07
2022-08-30T01:23:55.785Z,76.20
2022-08-30T01:26:23.130Z,75.84
2022-08-30T01:28:54.867Z,75.99
2022-08-30T01:31:21.803Z,75.87
2022-08-30T01:33:48.657Z,75.98
2022-08-30T01:36:15.779Z,76.03
2022-08-30T01:38:50.024Z,76.38
2022-08-30T01:41:18.646Z,76.57
2022-08-30T01:43:45.708Z,76.24
2022-08-30T01:46:15.859Z,76.23
2022-08-30T01:48:54.121Z,76.03
2022-08-30T01:51:23.659Z,76.24
2022-08-30T01:53:50.693Z,76.23
2022-08-30T01:56:17.989Z,76.03
2022-08-30T01:58:45.741Z,76.06
2022-08-30T02:01:15.903Z,76.27
2022-08-30T02:03:46.607Z,76.00
2022-08-30T02:06:16.444Z,76.21
2022-08-30T02:08:44.254Z,76.31
2022-08-30T02:11:12.214Z,76.60
2022-08-30T02:13:40.394Z,76.83
2022-08-30T02:16:10.233Z,76.62
2022-08-30T02:18:39.369Z,76.78
2022-08-30T02:21:07.552Z,76.61
2022-08-30T02:23:34.955Z,77.17
2022-08-30T02:26:01.943Z,77.12
2022-08-30T02:28:29.200Z,76.93
2022-08-30T02:30:55.987Z,76.80
2022-08-30T02:33:22.783Z,77.26
2022-08-30T02:35:49.578Z,77.51
2022-08-30T02:38:16.399Z,77.49
2022-08-30T02:40:47.258Z,77.69
2022-08-30T02:43:14.157Z,77.59
2022-08-30T02:45:41.172Z,77.52
2022-08-30T02:48:08.373Z,77.43
2022-08-30T02:50:35.200Z,77.22
2022-08-30T02:53:01.974Z,77.61
2022-08-30T02:55:28.701Z,77.43
2022-08-30T02:57:55.540Z,77.20
2022-08-30T03:00:22.454Z,77.36
2022-08-30T03:02:49.462Z,77.12
2022-08-30T03:05:18.259Z,77.05
2022-08-30T03:07:47.392Z,76.43
2022-08-30T03:10:15.292Z,76.26
2022-08-30T03:12:42.737Z,75.80
2022-08-30T03:15:13.635Z,75.87
2022-08-30T03:17:41.056Z,76.09
2022-08-30T03:20:09.746Z,76.20
2022-08-30T03:22:36.498Z,75.81
2022-08-30T03:25:05.012Z,76.05
2022-08-30T03:27:31.954Z,76.13
2022-08-30T03:29:59.049Z,76.07
2022-08-30T03:32:25.893Z,75.99
2022-08-30T03:34:52.672Z,76.04
2022-08-30T03:37:23.294Z,76.09
2022-08-30T03:39:52.439Z,75.94
2022-08-30T03:42:19.985Z,76.05
2022-08-30T03:44:48.279Z,76.24
2022-08-30T03:47:15.178Z,76.67
2022-08-30T03:49:42.167Z,76.18
2022-08-30T03:52:09.020Z,76.39
2022-08-30T03:54:35.862Z,76.40
2022-08-30T03:57:04.910Z,76.40
2022-08-30T03:59:31.730Z,75.81
2022-08-30T04:01:59.323Z,75.87
2022-08-30T04:04:26.194Z,75.65
2022-08-30T04:06:52.967Z,75.25
2022-08-30T04:09:20.152Z,75.23
2022-08-30T04:11:47.014Z,74.92
2022-08-30T04:14:14.050Z,75.51
2022-08-30T04:16:41.268Z,75.92
2022-08-30T04:19:08.141Z,75.86
2022-08-30T04:21:35.073Z,75.71
2022-08-30T04:24:09.706Z,75.85
2022-08-30T04:26:36.718Z,75.66
2022-08-30T04:29:04.064Z,74.80
2022-08-30T04:31:31.495Z,75.03
2022-08-30T04:33:58.331Z,75.96
2022-08-30T04:36:25.688Z,76.71
2022-08-30T04:38:52.488Z,75.92
2022-08-30T04:41:21.038Z,74.96
2022-08-30T04:43:50.727Z,75.09
2022-08-30T04:46:19.088Z,75.60
2022-08-30T04:48:46.958Z,76.19
2022-08-30T04:51:16.534Z,76.55
2022-08-30T04:53:43.996Z,75.34
2022-08-30T04:56:16.388Z,75.16
2022-08-30T04:58:47.803Z,74.79
2022-08-30T05:01:19.880Z,74.48
2022-08-30T05:03:47.912Z,74.68
2022-08-30T05:06:15.787Z,74.38
2022-08-30T05:08:46.012Z,74.39
2022-08-30T05:11:14.869Z,74.37
2022-08-30T05:13:41.883Z,73.65
2022-08-30T05:16:09.108Z,73.51
2022-08-30T05:18:36.966Z,72.44
2022-08-30T05:21:14.177Z,72.31
2022-08-30T05:23:42.375Z,70.99
2022-08-30T05:26:14.628Z,71.41
2022-08-30T05:28:41.689Z,70.91
2022-08-30T05:31:14.747Z,70.51
2022-08-30T05:33:42.117Z,69.84
2022-08-30T05:36:10.679Z,70.06
2022-08-30T05:38:37.582Z,70.31
2022-08-30T05:41:10.686Z,69.98
2022-08-30T05:43:38.070Z,70.31
2022-08-30T05:46:19.415Z,69.00
2022-08-30T05:48:47.004Z,69.21
2022-08-30T05:51:17.625Z,69.44
2022-08-30T05:53:45.820Z,69.10
2022-08-30T05:56:15.744Z,68.67
2022-08-30T05:58:42.779Z,68.68
2022-08-30T06:01:20.045Z,67.73
2022-08-30T06:03:47.044Z,67.71
2022-08-30T06:06:13.783Z,67.68
2022-08-30T06:08:40.525Z,67.31
2022-08-30T06:11:07.282Z,67.07
2022-08-30T06:13:34.557Z,66.68
2022-08-30T06:16:01.368Z,66.34
2022-08-30T06:18:28.977Z,65.53
2022-08-30T06:20:55.876Z,65.34
2022-08-30T06:23:23.346Z,64.82
2022-08-30T06:25:50.506Z,64.38
2022-08-30T06:28:17.518Z,63.77
2022-08-30T06:30:44.482Z,63.43
2022-08-30T06:33:11.353Z,63.88
2022-08-30T06:35:56.636Z,63.41
2022-08-30T06:38:25.337Z,63.27
2022-08-30T06:40:52.130Z,62.62
2022-08-30T06:43:18.909Z,63.39
2022-08-30T06:45:45.831Z,62.32
2022-08-30T06:48:12.743Z,64.00
2022-08-30T06:50:42.027Z,63.29
2022-08-30T06:53:09.930Z,64.19
2022-08-30T06:55:37.399Z,64.15
2022-08-30T06:58:04.802Z,64.94
2022-08-30T07:00:31.623Z,64.76
2022-08-30T07:02:59.107Z,65.95
2022-08-30T07:05:26.170Z,65.92
2022-08-30T07:07:55.780Z,66.28
2022-08-30T07:10:22.677Z,65.90
2022-08-30T07:12:49.781Z,65.64
2022-08-30T07:15:20.617Z,64.25
2022-08-30T07:18:05.741Z,65.36
2022-08-30T07:20:40.071Z,63.98
2022-08-30T07:23:08.054Z,63.97
2022-08-30T07:25:37.007Z,63.61
2022-08-30T07:28:05.738Z,62.41
2022-08-30T07:30:33.347Z,62.70
2022-08-30T07:33:00.462Z,62.35
2022-08-30T07:35:27.386Z,61.67
2022-08-30T07:37:54.320Z,61.66
2022-08-30T07:40:21.239Z,59.48
2022-08-30T07:42:48.045Z,59.03
2022-08-30T07:45:14.907Z,58.88
2022-08-30T07:47:42.103Z,58.19
2022-08-30T07:50:08.973Z,58.95
2022-08-30T07:52:35.732Z,56.94
2022-08-30T07:55:03.165Z,57.78
2022-08-30T07:57:33.670Z,57.27
2022-08-30T08:00:01.377Z,55.96
2022-08-30T08:02:28.600Z,56.33
2022-08-30T08:04:55.539Z,55.54
2022-08-30T08:07:22.291Z,54.71
2022-08-30T08:09:49.826Z,53.54
2022-08-30T08:12:16.622Z,53.61
2022-08-30T08:14:43.351Z,54.28
2022-08-30T08:17:10.147Z,54.73
2022-08-30T08:19:36.868Z,54.64
2022-08-30T08:22:22.348Z,54.55
2022-08-30T08:24:49.983Z,54.14
2022-08-30T08:27:16.786Z,52.99
2022-08-30T08:29:43.630Z,52.79
2022-08-30T08:32:10.462Z,53.00
2022-08-30T08:34:37.299Z,53.10
2022-08-30T08:37:04.052Z,52.66
2022-08-30T08:39:30.890Z,51.46
2022-08-30T08:42:22.716Z,51.82
2022-08-30T08:45:00.792Z,52.21
2022-08-30T08:47:37.675Z,51.92
2022-08-30T08:50:12.761Z,50.05
2022-08-30T08:53:45.969Z,49.68
2022-08-30T08:56:15.662Z,50.73
2022-08-30T08:58:48.313Z,49.93
2022-08-30T09:01:20.019Z,49.85
2022-08-30T09:03:47.496Z,47.45
2022-08-30T09:06:27.861Z,45.01
2022-08-30T09:08:55.585Z,46.18
2022-08-30T09:11:27.891Z,44.12
2022-08-30T09:13:55.202Z,45.09
2022-08-30T09:16:51.804Z,44.65
2022-08-30T09:19:41.407Z,44.85
2022-08-30T09:22:34.739Z,46.16
2022-08-30T09:25:13.551Z,46.58
2022-08-30T09:27:44.856Z,46.31
2022-08-30T09:30:23.056Z,46.40
2022-08-30T09:32:57.662Z,46.55
2022-08-30T09:35:26.987Z,47.36
2022-08-30T09:38:04.695Z,46.81
2022-08-30T09:40:41.677Z,46.69
2022-08-30T09:43:34.654Z,45.85
2022-08-30T09:46:01.873Z,46.88
2022-08-30T09:48:37.725Z,44.75
2022-08-30T09:51:10.369Z,46.85
2022-08-30T09:54:19.876Z,47.51
2022-08-30T09:57:12.848Z,44.80
2022-08-30T10:00:05.052Z,46.44
2022-08-30T10:02:57.638Z,45.10
2022-08-30T10:05:55.223Z,43.49
2022-08-30T10:08:42.990Z,43.26
2022-08-30T10:11:19.582Z,44.08
2022-08-30T10:14:05.657Z,43.16
2022-08-30T10:16:50.333Z,43.46
2022-08-30T10:19:29.805Z,44.12
2022-08-30T10:22:04.625Z,43.93
2022-08-30T10:24:40.384Z,42.01
2022-08-30T10:27:26.334Z,43.74
2022-08-30T10:30:02.750Z,41.66
2022-08-30T10:32:37.947Z,42.21
2022-08-30T10:35:10.054Z,41.57
2022-08-30T10:38:06.038Z,41.17
2022-08-30T10:40:55.006Z,40.75
2022-08-30T10:43:41.666Z,41.51
2022-08-30T10:46:16.578Z,40.85
2022-08-30T10:48:47.478Z,41.54
2022-08-30T10:51:27.180Z,41.85
2022-08-30T10:54:18.828Z,41.96
2022-08-30T10:56:50.739Z,42.90
2022-08-30T10:59:20.479Z,42.34
2022-08-30T11:02:12.156Z,41.38
2022-08-30T11:05:01.457Z,41.80
2022-08-30T11:07:43.574Z,42.16
2022-08-30T11:10:38.223Z,40.97
2022-08-30T11:13:15.886Z,41.24
2022-08-30T11:16:02.968Z,41.64
2022-08-30T11:18:34.168Z,41.04
2022-08-30T11:21:33.531Z,41.70
2022-08-30T11:24:12.154Z,41.21
2022-08-30T11:26:45.663Z,42.00
2022-08-30T11:29:44.844Z,42.60
2022-08-30T11:32:15.951Z,42.78
2022-08-30T11:34:46.031Z,42.51
2022-08-30T11:37:38.619Z,42.45
2022-08-30T11:40:20.773Z,43.99
2022-08-30T11:42:49.436Z,43.40
2022-08-30T11:45:24.995Z,43.14
2022-08-30T11:48:10.130Z,43.91
2022-08-30T11:50:55.447Z,40.80
2022-08-30T11:53:49.899Z,41.31
2022-08-30T11:56:28.531Z,38.52
2022-08-30T11:59:06.353Z,40.37
2022-08-30T12:01:56.391Z,39.47
2022-08-30T12:04:44.690Z,37.86
2022-08-30T12:07:32.418Z,39.25
2022-08-30T12:10:06.398Z,37.70
2022-08-30T12:12:39.483Z,40.16
2022-08-30T12:15:25.545Z,40.39
2022-08-30T12:18:17.220Z,39.90
2022-08-30T12:20:47.879Z,38.84
2022-08-30T12:23:23.490Z,40.28
2022-08-30T12:25:50.595Z,40.97
2022-08-30T12:28:24.441Z,40.92
2022-08-30T12:30:52.071Z,40.90
2022-08-30T12:33:36.594Z,41.73
2022-08-30T12:36:13.483Z,40.01
2022-08-30T12:38:40.733Z,39.19
2022-08-30T12:41:08.047Z,40.06
2022-08-30T12:43:47.522Z,38.61
2022-08-30T12:46:17.310Z,38.87
2022-08-30T12:48:45.089Z,39.75
2022-08-30T12:51:27.999Z,39.86
2022-08-30T12:54:22.264Z,39.46
2022-08-30T12:56:56.577Z,40.79
2022-08-30T12:59:55.427Z,38.65
2022-08-30T13:02:28.093Z,38.73
2022-08-30T13:04:56.514Z,38.68
2022-08-30T13:07:32.661Z,36.90
2022-08-30T13:10:08.610Z,39.42
2022-08-30T13:12:40.327Z,40.60
2022-08-30T13:15:27.417Z,40.86
2022-08-30T13:18:28.113Z,39.42
2022-08-30T13:21:30.225Z,41.58
2022-08-30T13:24:05.533Z,40.43
2022-08-30T13:26:35.453Z,39.89
2022-08-30T13:29:10.379Z,39.47
2022-08-30T13:31:37.740Z,37.61
2022-08-30T13:34:05.221Z,38.37
2022-08-30T13:36:35.189Z,39.55
2022-08-30T13:39:03.445Z,39.03
2022-08-30T13:41:33.778Z,39.67
2022-08-30T13:44:13.242Z,39.68
2022-08-30T13:46:44.444Z,39.65
2022-08-30T13:49:45.953Z,39.58
2022-08-30T13:52:23.002Z,39.73
2022-08-30T13:54:52.047Z,39.51
2022-08-30T14:00:14.374Z,38.32
2022-08-30T14:02:45.419Z,38.67
2022-08-30T14:05:30.852Z,39.21
2022-08-30T14:08:00.624Z,38.66
2022-08-30T14:10:31.226Z,39.35
2022-08-30T14:13:08.206Z,38.60
2022-08-30T14:15:39.592Z,38.06
2022-08-30T14:18:07.724Z,37.30
2022-08-30T14:20:38.608Z,38.02
2022-08-30T14:23:07.661Z,37.99
2022-08-30T14:25:37.727Z,38.10
2022-08-30T14:28:07.125Z,38.62
2022-08-30T14:30:33.893Z,38.76
2022-08-30T14:33:00.923Z,37.49
2022-08-30T14:35:28.315Z,37.98
2022-08-30T14:38:04.652Z,38.48
2022-08-30T14:40:38.490Z,38.90
2022-08-30T14:43:06.102Z,37.85
2022-08-30T14:45:32.923Z,37.58
2022-08-30T14:48:02.790Z,37.45
2022-08-30T14:50:36.997Z,37.48
2022-08-30T14:53:05.277Z,37.37
2022-08-30T14:55:33.939Z,38.45
2022-08-30T14:58:01.633Z,37.93
2022-08-30T15:00:28.885Z,37.45
2022-08-30T15:02:55.668Z,36.65
2022-08-30T15:05:22.430Z,38.20
2022-08-30T15:07:51.555Z,36.99
2022-08-30T15:10:20.801Z,37.85
2022-08-30T15:12:49.001Z,37.82
2022-08-30T15:15:19.814Z,37.01
2022-08-30T15:17:50.522Z,37.75
2022-08-30T15:20:21.286Z,37.22
2022-08-30T15:22:48.115Z,37.41
2022-08-30T15:25:15.279Z,38.45
2022-08-30T15:27:42.093Z,37.53
2022-08-30T15:30:10.924Z,37.33
2022-08-30T15:32:38.016Z,37.76
2022-08-30T15:35:05.699Z,38.37
2022-08-30T15:37:34.879Z,37.97
2022-08-30T15:40:04.540Z,37.22
2022-08-30T15:42:33.751Z,37.27
2022-08-30T15:45:00.534Z,37.11
2022-08-30T15:47:27.723Z,38.35
2022-08-30T15:50:01.350Z,36.73
2022-08-30T15:52:28.194Z,36.86
2022-08-30T15:54:55.224Z,37.05
2022-08-30T15:57:23.112Z,36.92
2022-08-30T15:59:50.480Z,36.94
2022-08-30T16:02:17.483Z,37.48
2022-08-30T16:04:45.098Z,37.50
2022-08-30T16:07:14.428Z,37.76
2022-08-30T16:09:41.683Z,37.09
2022-08-30T16:12:09.759Z,38.15
2022-08-30T16:14:37.305Z,38.64
2022-08-30T16:17:04.996Z,38.18
2022-08-30T16:19:31.838Z,37.46
2022-08-30T16:21:58.875Z,37.77
2022-08-30T16:24:26.054Z,37.45
2022-08-30T16:26:53.592Z,37.39
2022-08-30T16:29:20.630Z,38.53
2022-08-30T16:31:47.611Z,38.38
2022-08-30T16:34:17.364Z,37.74
2022-08-30T16:36:44.536Z,37.80
2022-08-30T16:39:13.494Z,38.04
2022-08-30T16:41:42.433Z,37.87
2022-08-30T16:44:10.295Z,38.54
2022-08-30T16:46:38.660Z,38.67
2022-08-30T16:49:08.934Z,39.03
2022-08-30T16:51:37.450Z,39.09
2022-08-30T16:54:07.744Z,39.81
2022-08-30T16:56:36.315Z,39.71
2022-08-30T16:59:07.033Z,40.31
2022-08-30T17:01:38.221Z,40.13
2022-08-30T17:04:06.700Z,40.40
2022-08-30T17:06:33.826Z,39.95
2022-08-30T17:09:04.343Z,41.13
2022-08-30T17:11:32.762Z,41.00
2022-08-30T17:13:59.827Z,41.48
2022-08-30T17:16:30.113Z,41.66
2022-08-30T17:19:00.649Z,41.94
2022-08-30T17:21:30.646Z,42.21
2022-08-30T17:24:02.120Z,43.88
2022-08-30T17:26:35.468Z,44.63
2022-08-30T17:29:03.187Z,45.67
2022-08-30T17:31:31.134Z,45.58
2022-08-30T17:34:04.248Z,45.43
2022-08-30T17:36:36.622Z,45.79
2022-08-30T17:39:10.707Z,46.62
2022-08-30T17:41:45.143Z,47.54
2022-08-30T17:44:19.865Z,48.66
2022-08-30T17:46:46.713Z,49.72
2022-08-30T17:49:13.886Z,49.62
2022-08-30T17:51:42.955Z,50.16
2022-08-30T17:54:12.798Z,50.70
2022-08-30T17:56:40.698Z,52.35
2022-08-30T17:59:09.617Z,53.32
2022-08-30T18:01:37.313Z,54.71
2022-08-30T18:04:06.158Z,54.67
2022-08-30T18:06:34.957Z,55.62
2022-08-30T18:09:03.865Z,55.59
2022-08-30T18:11:36.095Z,55.14
2022-08-30T18:14:04.092Z,55.83
2022-08-30T18:16:35.082Z,56.75
2022-08-30T18:19:09.701Z,56.29
2022-08-30T18:21:37.592Z,57.86
2022-08-30T18:24:05.433Z,59.31
2022-08-30T18:26:32.442Z,58.99
2022-08-30T18:28:59.821Z,60.33
2022-08-30T18:31:27.251Z,61.20
2022-08-30T18:33:55.287Z,61.25
2022-08-30T18:36:22.063Z,61.31
2022-08-30T18:38:49.010Z,61.27
2022-08-30T18:41:17.243Z,61.51
2022-08-30T18:46:31.345Z,61.07
2022-08-30T18:49:00.208Z,60.58
2022-08-30T18:51:27.274Z,61.06
2022-08-30T18:53:55.749Z,61.68
2022-08-30T18:56:23.045Z,61.78
2022-08-30T18:58:54.841Z,62.18
2022-08-30T19:01:23.025Z,62.74
2022-08-30T19:03:50.645Z,63.52
2022-08-30T19:06:19.344Z,63.39
2022-08-30T19:08:46.522Z,62.65
2022-08-30T19:11:16.251Z,62.56
2022-08-30T19:13:43.825Z,61.14
2022-08-30T19:16:12.113Z,60.49
2022-08-30T19:18:40.631Z,61.24
2022-08-30T19:21:13.465Z,60.87
2022-08-30T19:23:40.983Z,60.45
2022-08-30T19:26:07.744Z,60.97
2022-08-30T19:28:38.109Z,62.41
2022-08-30T19:31:06.466Z,63.13
2022-08-30T19:33:34.047Z,65.76
2022-08-30T19:36:01.039Z,66.96
2022-08-30T19:38:27.868Z,67.32
2022-08-30T19:40:59.649Z,66.43
2022-08-30T19:43:27.421Z,65.52
2022-08-30T19:45:59.934Z,65.38
2022-08-30T19:48:32.700Z,66.90
2022-08-30T19:51:06.754Z,66.37
2022-08-30T19:53:34.264Z,68.97
2022-08-30T19:56:01.074Z,71.07
2022-08-30T19:58:30.236Z,71.56
2022-08-30T20:01:10.653Z,70.77
2022-08-30T20:03:45.258Z,70.28
2022-08-30T20:06:12.083Z,70.48
2022-08-30T20:08:39.288Z,70.11
2022-08-30T20:11:06.810Z,70.28
2022-08-30T20:13:35.857Z,70.59
2022-08-30T20:16:02.859Z,69.78
2022-08-30T20:18:29.605Z,69.48
2022-08-30T20:20:57.106Z,69.10
2022-08-30T20:23:25.499Z,69.50
2022-08-30T20:24:29.158Z,61.26
2022-08-30T20:25:54.628Z,68.93
2022-08-30T20:28:22.247Z,69.35
2022-08-30T20:30:49.396Z,68.01
2022-08-30T20:33:16.899Z,67.38
2022-08-30T20:35:48.736Z,67.32
2022-08-30T20:38:21.441Z,66.73
2022-08-30T20:40:51.261Z,66.12
2022-08-30T20:43:19.665Z,64.90
2022-08-30T20:45:47.695Z,64.71
2022-08-30T20:48:15.257Z,65.69
2022-08-30T20:50:42.374Z,65.61
2022-08-30T20:53:09.827Z,65.45
2022-08-30T20:55:41.451Z,65.21
2022-08-30T20:58:08.407Z,66.73
2022-08-30T21:00:35.520Z,66.29
2022-08-30T21:03:06.623Z,66.76
2022-08-30T21:05:51.277Z,66.51
2022-08-30T21:08:18.672Z,66.46
2022-08-30T21:10:46.365Z,66.62
2022-08-30T21:13:13.159Z,66.79
2022-08-30T21:15:39.884Z,66.95
2022-08-30T21:18:06.695Z,66.73
2022-08-30T21:20:33.523Z,66.95
2022-08-30T21:23:00.386Z,66.36
2022-08-30T21:25:27.076Z,65.58
2022-08-30T21:27:54.942Z,64.77
2022-08-30T21:30:21.793Z,64.08
2022-08-30T21:32:48.524Z,64.37
2022-08-30T21:35:33.680Z,65.33
2022-08-30T21:38:00.495Z,65.31
2022-08-30T21:40:27.464Z,64.69
2022-08-30T21:42:54.275Z,66.20
2022-08-30T21:45:21.002Z,67.15
2022-08-30T21:47:47.754Z,67.48
2022-08-30T21:50:14.607Z,67.64
2022-08-30T21:52:41.342Z,69.10
2022-08-30T21:55:08.404Z,69.70
2022-08-30T21:57:35.227Z,69.86
2022-08-30T22:00:04.431Z,70.89
2022-08-30T22:02:33.176Z,69.34
2022-08-30T22:05:00.065Z,68.69
2022-08-30T22:07:27.720Z,69.20
2022-08-30T22:09:54.490Z,70.81
2022-08-30T22:12:21.253Z,70.50
2022-08-30T22:14:48.048Z,71.44
2022-08-30T22:17:14.814Z,71.87
2022-08-30T22:19:41.837Z,72.86
2022-08-30T22:22:08.643Z,73.85
2022-08-30T22:24:35.442Z,72.71
2022-08-30T22:27:03.443Z,71.19
2022-08-30T22:29:30.607Z,72.40
2022-08-30T22:31:58.473Z,74.35
2022-08-30T22:34:25.654Z,74.68
2022-08-30T22:36:52.431Z,73.58
2022-08-30T22:39:19.251Z,75.04
2022-08-30T22:41:46.101Z,73.32
2022-08-30T22:44:13.426Z,71.79
2022-08-30T22:46:40.547Z,70.48
2022-08-30T22:49:09.089Z,70.17
2022-08-30T22:51:36.764Z,69.47
2022-08-30T22:54:05.044Z,68.79
2022-08-30T22:56:34.167Z,69.12
2022-08-30T22:59:01.277Z,68.66
2022-08-30T23:01:34.319Z,68.04
2022-08-30T23:04:01.740Z,67.45
2022-08-30T23:06:29.559Z,68.59
2022-08-30T23:08:56.544Z,69.98
2022-08-30T23:11:23.395Z,69.31
2022-08-30T23:13:50.339Z,70.78
2022-08-30T23:16:17.884Z,69.99
2022-08-30T23:18:46.381Z,69.73
2022-08-30T23:21:16.658Z,69.95
2022-08-30T23:24:02.414Z,70.29
2022-08-30T23:26:48.045Z,71.01
2022-08-30T23:29:34.089Z,71.49
2022-08-30T23:32:19.168Z,72.33
2022-08-30T23:35:04.446Z,72.14
2022-08-30T23:37:53.204Z,73.47
2022-08-30T23:40:40.605Z,71.73
2022-08-30T23:43:27.788Z,70.08
2022-08-30T23:46:18.980Z,68.97
2022-08-30T23:49:08.920Z,69.04
2022-08-30T23:51:56.770Z,68.67
2022-08-30T23:54:43.354Z,68.32
2022-08-30T23:57:28.742Z,68.34
